sensor_id;sensor_type;location;lat;lon;timestamp;pressure;altitude;pressure_sealevel;temperature;humidity
70200;BME280;57587;55.688;37.600;2023-03-14T00:01:22;99222.81;;;-1.07;53.30
70200;BME280;57587;55.688;37.600;2023-03-14T00:03:50;99219.00;;;-1.03;53.17
70200;BME280;57587;55.688;37.600;2023-03-14T00:06:18;99206.00;;;-1.16;53.40
70200;BME280;57587;55.688;37.600;2023-03-14T00:08:46;99202.91;;;-1.21;53.32
70200;BME280;57587;55.688;37.600;2023-03-14T00:11:19;99194.66;;;-1.16;53.64
70200;BME280;57587;55.688;37.600;2023-03-14T00:13:48;99195.38;;;-1.14;53.07
70200;BME280;57587;55.688;37.600;2023-03-14T00:16:16;99188.44;;;-1.04;53.48
70200;BME280;57587;55.688;37.600;2023-03-14T00:18:43;99168.66;;;-1.08;53.46
70200;BME280;57587;55.688;37.600;2023-03-14T00:21:11;99164.34;;;-0.98;53.30
70200;BME280;57587;55.688;37.600;2023-03-14T00:23:40;99160.28;;;-1.02;53.58
70200;BME280;57587;55.688;37.600;2023-03-14T00:26:10;99155.03;;;-1.02;53.43
70200;BME280;57587;55.688;37.600;2023-03-14T00:28:38;99144.19;;;-1.08;53.68
70200;BME280;57587;55.688;37.600;2023-03-14T00:31:06;99145.25;;;-1.11;53.92
70200;BME280;57587;55.688;37.600;2023-03-14T00:33:34;99147.16;;;-1.13;54.26
70200;BME280;57587;55.688;37.600;2023-03-14T00:36:08;99138.34;;;-1.23;53.94
70200;BME280;57587;55.688;37.600;2023-03-14T00:38:37;99139.66;;;-1.18;54.24
70200;BME280;57587;55.688;37.600;2023-03-14T00:41:07;99146.31;;;-1.25;54.47
70200;BME280;57587;55.688;37.600;2023-03-14T00:43:34;99132.97;;;-1.44;55.14
70200;BME280;57587;55.688;37.600;2023-03-14T00:46:02;99140.00;;;-1.45;55.26
70200;BME280;57587;55.688;37.600;2023-03-14T00:48:29;99133.22;;;-1.36;55.94
70200;BME280;57587;55.688;37.600;2023-03-14T00:50:57;99137.50;;;-1.24;55.48
70200;BME280;57587;55.688;37.600;2023-03-14T00:53:24;99134.25;;;-1.27;56.16
70200;BME280;57587;55.688;37.600;2023-03-14T00:55:51;99135.00;;;-1.25;56.52
70200;BME280;57587;55.688;37.600;2023-03-14T00:58:18;99126.53;;;-1.18;56.48
70200;BME280;57587;55.688;37.600;2023-03-14T01:00:45;99128.06;;;-1.15;56.67
70200;BME280;57587;55.688;37.600;2023-03-14T01:03:13;99116.88;;;-1.17;57.08
70200;BME280;57587;55.688;37.600;2023-03-14T01:05:41;99115.06;;;-1.17;57.34
70200;BME280;57587;55.688;37.600;2023-03-14T01:08:09;99111.13;;;-1.11;57.44
70200;BME280;57587;55.688;37.600;2023-03-14T01:10:40;99120.19;;;-1.04;57.76
70200;BME280;57587;55.688;37.600;2023-03-14T01:13:08;99111.84;;;-1.20;58.71
70200;BME280;57587;55.688;37.600;2023-03-14T01:15:36;99111.97;;;-1.10;58.94
70200;BME280;57587;55.688;37.600;2023-03-14T01:18:04;99109.44;;;-1.12;59.65
70200;BME280;57587;55.688;37.600;2023-03-14T01:20:31;99126.03;;;-1.00;60.36
70200;BME280;57587;55.688;37.600;2023-03-14T01:22:59;99113.50;;;-1.08;60.94
70200;BME280;57587;55.688;37.600;2023-03-14T01:25:26;99097.28;;;-1.02;61.26
70200;BME280;57587;55.688;37.600;2023-03-14T01:27:53;99103.31;;;-0.90;61.26
70200;BME280;57587;55.688;37.600;2023-03-14T01:30:21;99080.63;;;-0.80;61.65
70200;BME280;57587;55.688;37.600;2023-03-14T01:32:48;99061.91;;;-0.86;61.54
70200;BME280;57587;55.688;37.600;2023-03-14T01:35:16;99055.72;;;-0.97;62.56
70200;BME280;57587;55.688;37.600;2023-03-14T01:37:43;99056.69;;;-1.09;64.06
70200;BME280;57587;55.688;37.600;2023-03-14T01:40:15;99046.06;;;-1.07;64.33
70200;BME280;57587;55.688;37.600;2023-03-14T01:42:54;99051.09;;;-1.04;64.05
70200;BME280;57587;55.688;37.600;2023-03-14T01:46:09;99056.34;;;-1.04;65.16
70200;BME280;57587;55.688;37.600;2023-03-14T01:56:47;99033.09;;;-1.20;67.88
70200;BME280;57587;55.688;37.600;2023-03-14T01:59:17;99023.44;;;-1.20;67.97
70200;BME280;57587;55.688;37.600;2023-03-14T02:01:46;99010.16;;;-1.18;68.03
70200;BME280;57587;55.688;37.600;2023-03-14T02:04:16;99007.59;;;-1.29;68.62
70200;BME280;57587;55.688;37.600;2023-03-14T02:07:03;98996.09;;;-1.17;68.76
70200;BME280;57587;55.688;37.600;2023-03-14T02:09:36;98992.59;;;-1.06;68.30
70200;BME280;57587;55.688;37.600;2023-03-14T02:12:04;98997.50;;;-1.13;68.65
70200;BME280;57587;55.688;37.600;2023-03-14T02:14:46;98989.41;;;-1.21;68.92
70200;BME280;57587;55.688;37.600;2023-03-14T02:17:35;98984.63;;;-1.05;68.88
70200;BME280;57587;55.688;37.600;2023-03-14T02:23:19;98972.19;;;-1.03;69.12
70200;BME280;57587;55.688;37.600;2023-03-14T02:26:14;98972.19;;;-1.03;69.83
70200;BME280;57587;55.688;37.600;2023-03-14T02:28:42;98970.72;;;-0.96;69.54
70200;BME280;57587;55.688;37.600;2023-03-14T02:31:09;98962.59;;;-0.93;69.59
70200;BME280;57587;55.688;37.600;2023-03-14T02:33:38;98961.06;;;-0.95;69.66
70200;BME280;57587;55.688;37.600;2023-03-14T02:36:10;98934.53;;;-0.92;70.42
70200;BME280;57587;55.688;37.600;2023-03-14T02:38:53;98912.44;;;-1.10;70.94
70200;BME280;57587;55.688;37.600;2023-03-14T02:41:25;98917.34;;;-1.17;71.74
70200;BME280;57587;55.688;37.600;2023-03-14T02:43:59;98905.34;;;-1.31;72.58
70200;BME280;57587;55.688;37.600;2023-03-14T02:46:27;98921.34;;;-1.34;73.10
70200;BME280;57587;55.688;37.600;2023-03-14T02:48:58;98914.00;;;-1.19;73.27
70200;BME280;57587;55.688;37.600;2023-03-14T02:51:27;98907.53;;;-1.15;73.37
70200;BME280;57587;55.688;37.600;2023-03-14T02:53:55;98914.00;;;-1.19;73.45
70200;BME280;57587;55.688;37.600;2023-03-14T02:56:24;98894.41;;;-1.15;73.52
70200;BME280;57587;55.688;37.600;2023-03-14T02:58:51;98902.38;;;-1.05;72.70
70200;BME280;57587;55.688;37.600;2023-03-14T03:01:38;98895.19;;;-1.03;72.95
70200;BME280;57587;55.688;37.600;2023-03-14T03:04:07;98905.09;;;-0.96;72.79
70200;BME280;57587;55.688;37.600;2023-03-14T03:06:34;98901.84;;;-0.99;72.52
70200;BME280;57587;55.688;37.600;2023-03-14T03:09:01;98906.75;;;-0.95;73.33
70200;BME280;57587;55.688;37.600;2023-03-14T03:11:28;98904.91;;;-0.83;73.56
70200;BME280;57587;55.688;37.600;2023-03-14T03:13:55;98903.56;;;-0.77;73.03
70200;BME280;57587;55.688;37.600;2023-03-14T03:16:23;98884.44;;;-0.58;73.18
70200;BME280;57587;55.688;37.600;2023-03-14T03:18:50;98866.63;;;-0.55;72.93
70200;BME280;57587;55.688;37.600;2023-03-14T03:21:17;98869.97;;;-0.53;72.31
70200;BME280;57587;55.688;37.600;2023-03-14T03:23:46;98879.25;;;-0.49;72.75
70200;BME280;57587;55.688;37.600;2023-03-14T03:26:13;98861.22;;;-0.53;73.25
70200;BME280;57587;55.688;37.600;2023-03-14T03:28:40;98848.84;;;-0.41;72.72
70200;BME280;57587;55.688;37.600;2023-03-14T03:31:09;98833.50;;;-0.36;72.37
70200;BME280;57587;55.688;37.600;2023-03-14T03:33:38;98842.69;;;-0.21;72.27
70200;BME280;57587;55.688;37.600;2023-03-14T03:36:06;98836.41;;;-0.39;72.19
70200;BME280;57587;55.688;37.600;2023-03-14T03:38:36;98830.47;;;-0.32;72.37
70200;BME280;57587;55.688;37.600;2023-03-14T03:41:05;98820.13;;;-0.24;72.45
70200;BME280;57587;55.688;37.600;2023-03-14T03:43:34;98810.31;;;-0.21;73.14
70200;BME280;57587;55.688;37.600;2023-03-14T03:46:04;98817.41;;;-0.12;72.67
70200;BME280;57587;55.688;37.600;2023-03-14T03:48:33;98810.06;;;-0.09;72.65
70200;BME280;57587;55.688;37.600;2023-03-14T03:51:03;98843.03;;;-0.05;72.99
70200;BME280;57587;55.688;37.600;2023-03-14T03:53:31;98813.66;;;-0.10;73.17
70200;BME280;57587;55.688;37.600;2023-03-14T03:56:08;98810.06;;;-0.09;73.12
70200;BME280;57587;55.688;37.600;2023-03-14T03:58:35;98808.03;;;0.05;73.21
70200;BME280;57587;55.688;37.600;2023-03-14T04:01:05;98796.53;;;0.15;72.71
70200;BME280;57587;55.688;37.600;2023-03-14T04:03:36;98813.28;;;0.05;74.84
70200;BME280;57587;55.688;37.600;2023-03-14T04:06:11;98816.91;;;0.23;73.64
70200;BME280;57587;55.688;37.600;2023-03-14T04:08:42;98809.03;;;0.23;73.40
70200;BME280;57587;55.688;37.600;2023-03-14T04:11:28;98812.34;;;0.35;73.16
70200;BME280;57587;55.688;37.600;2023-03-14T04:14:16;98802.66;;;0.45;72.54
70200;BME280;57587;55.688;37.600;2023-03-14T04:16:43;98791.16;;;0.36;74.98
70200;BME280;57587;55.688;37.600;2023-03-14T04:19:14;98797.66;;;0.42;73.91
70200;BME280;57587;55.688;37.600;2023-03-14T04:21:41;98789.38;;;0.47;73.35
70200;BME280;57587;55.688;37.600;2023-03-14T04:24:12;98796.28;;;0.57;73.17
70200;BME280;57587;55.688;37.600;2023-03-14T04:26:42;98787.41;;;0.68;72.81
70200;BME280;57587;55.688;37.600;2023-03-14T04:29:10;98788.50;;;0.56;72.81
70200;BME280;57587;55.688;37.600;2023-03-14T04:31:40;98757.06;;;0.64;72.50
70200;BME280;57587;55.688;37.600;2023-03-14T04:34:07;98770.66;;;0.69;72.54
70200;BME280;57587;55.688;37.600;2023-03-14T04:36:40;98790.59;;;0.81;72.44
70200;BME280;57587;55.688;37.600;2023-03-14T04:39:12;98769.91;;;0.86;72.31
70200;BME280;57587;55.688;37.600;2023-03-14T04:41:47;98772.97;;;0.82;72.29
70200;BME280;57587;55.688;37.600;2023-03-14T04:44:14;98756.06;;;0.84;72.19
70200;BME280;57587;55.688;37.600;2023-03-14T04:46:41;98761.44;;;0.92;72.49
70200;BME280;57587;55.688;37.600;2023-03-14T04:49:10;98756.84;;;1.04;72.36
70200;BME280;57587;55.688;37.600;2023-03-14T04:51:38;98764.63;;;1.06;72.33
70200;BME280;57587;55.688;37.600;2023-03-14T04:54:05;98745.19;;;1.07;72.68
70200;BME280;57587;55.688;37.600;2023-03-14T04:56:32;98740.63;;;1.09;72.60
70200;BME280;57587;55.688;37.600;2023-03-14T04:59:01;98747.94;;;1.15;73.59
70200;BME280;57587;55.688;37.600;2023-03-14T05:01:30;98734.63;;;1.17;72.75
70200;BME280;57587;55.688;37.600;2023-03-14T05:04:05;98722.38;;;1.25;72.45
70200;BME280;57587;55.688;37.600;2023-03-14T05:06:50;98736.53;;;1.24;72.63
70200;BME280;57587;55.688;37.600;2023-03-14T05:09:53;98723.75;;;1.29;72.58
70200;BME280;57587;55.688;37.600;2023-03-14T05:12:40;98721.22;;;1.37;72.39
70200;BME280;57587;55.688;37.600;2023-03-14T05:15:28;98711.16;;;1.51;72.34
70200;BME280;57587;55.688;37.600;2023-03-14T05:18:04;98695.34;;;1.51;72.42
70200;BME280;57587;55.688;37.600;2023-03-14T05:20:42;98701.44;;;1.51;72.11
70200;BME280;57587;55.688;37.600;2023-03-14T05:23:22;98708.53;;;1.51;72.12
70200;BME280;57587;55.688;37.600;2023-03-14T05:26:07;98693.91;;;1.56;71.85
70200;BME280;57587;55.688;37.600;2023-03-14T05:28:45;98698.00;;;1.69;71.37
70200;BME280;57587;55.688;37.600;2023-03-14T05:31:29;98699.88;;;1.76;71.04
70200;BME280;57587;55.688;37.600;2023-03-14T05:34:08;98715.13;;;1.82;70.46
70200;BME280;57587;55.688;37.600;2023-03-14T05:36:55;98701.50;;;1.87;70.37
70200;BME280;57587;55.688;37.600;2023-03-14T05:39:58;98702.78;;;2.01;69.29
70200;BME280;57587;55.688;37.600;2023-03-14T05:42:49;98708.66;;;2.13;68.87
70200;BME280;57587;55.688;37.600;2023-03-14T05:45:31;98707.63;;;2.23;68.41
70200;BME280;57587;55.688;37.600;2023-03-14T05:48:12;98715.44;;;2.33;68.23
70200;BME280;57587;55.688;37.600;2023-03-14T05:51:05;98716.72;;;2.29;67.56
70200;BME280;57587;55.688;37.600;2023-03-14T05:53:56;98709.03;;;2.36;67.43
70200;BME280;57587;55.688;37.600;2023-03-14T05:56:42;98709.31;;;2.50;67.40
70200;BME280;57587;55.688;37.600;2023-03-14T05:59:09;98725.69;;;2.54;66.67
70200;BME280;57587;55.688;37.600;2023-03-14T06:01:55;98737.28;;;2.61;66.47
70200;BME280;57587;55.688;37.600;2023-03-14T06:04:26;98732.34;;;2.66;66.09
70200;BME280;57587;55.688;37.600;2023-03-14T06:06:57;98719.00;;;2.68;66.07
70200;BME280;57587;55.688;37.600;2023-03-14T06:09:25;98706.00;;;2.74;65.37
70200;BME280;57587;55.688;37.600;2023-03-14T06:11:55;98699.22;;;2.72;65.14
70200;BME280;57587;55.688;37.600;2023-03-14T06:14:22;98722.06;;;2.81;64.58
70200;BME280;57587;55.688;37.600;2023-03-14T06:16:51;98707.47;;;2.95;64.90
70200;BME280;57587;55.688;37.600;2023-03-14T06:19:21;98711.75;;;2.96;63.85
70200;BME280;57587;55.688;37.600;2023-03-14T06:21:48;98693.34;;;3.12;64.07
70200;BME280;57587;55.688;37.600;2023-03-14T06:24:15;98694.91;;;3.31;63.22
70200;BME280;57587;55.688;37.600;2023-03-14T06:26:46;98704.91;;;3.45;62.88
70200;BME280;57587;55.688;37.600;2023-03-14T06:29:14;98697.13;;;3.44;62.26
70200;BME280;57587;55.688;37.600;2023-03-14T06:31:41;98701.63;;;3.52;62.54
70200;BME280;57587;55.688;37.600;2023-03-14T06:34:09;98710.06;;;3.55;62.58
70200;BME280;57587;55.688;37.600;2023-03-14T06:36:38;98691.53;;;3.47;61.40
70200;BME280;57587;55.688;37.600;2023-03-14T06:39:05;98703.44;;;3.51;61.90
70200;BME280;57587;55.688;37.600;2023-03-14T06:41:35;98701.78;;;3.50;61.32
70200;BME280;57587;55.688;37.600;2023-03-14T06:44:03;98696.69;;;3.57;61.77
70200;BME280;57587;55.688;37.600;2023-03-14T06:46:31;98685.88;;;3.42;61.57
70200;BME280;57587;55.688;37.600;2023-03-14T06:48:59;98672.03;;;3.48;61.53
70200;BME280;57587;55.688;37.600;2023-03-14T06:51:26;98678.50;;;3.54;61.81
70200;BME280;57587;55.688;37.600;2023-03-14T06:53:53;98676.47;;;3.47;60.86
70200;BME280;57587;55.688;37.600;2023-03-14T06:56:24;98675.34;;;3.58;61.19
70200;BME280;57587;55.688;37.600;2023-03-14T06:58:53;98695.97;;;3.46;61.06
70200;BME280;57587;55.688;37.600;2023-03-14T07:01:29;98673.34;;;3.52;61.32
70200;BME280;57587;55.688;37.600;2023-03-14T07:04:04;98682.00;;;3.70;60.62
70200;BME280;57587;55.688;37.600;2023-03-14T07:06:33;98685.63;;;3.78;60.64
70200;BME280;57587;55.688;37.600;2023-03-14T07:09:01;98683.97;;;3.68;60.53
70200;BME280;57587;55.688;37.600;2023-03-14T07:11:29;98694.28;;;3.88;59.90
70200;BME280;57587;55.688;37.600;2023-03-14T07:13:57;98694.59;;;3.85;59.65
70200;BME280;57587;55.688;37.600;2023-03-14T07:16:24;98699.56;;;3.96;59.50
70200;BME280;57587;55.688;37.600;2023-03-14T07:18:55;98677.59;;;3.87;59.52
70200;BME280;57587;55.688;37.600;2023-03-14T07:21:23;98698.75;;;3.87;59.50
70200;BME280;57587;55.688;37.600;2023-03-14T07:23:50;98709.19;;;3.97;59.85
70200;BME280;57587;55.688;37.600;2023-03-14T07:26:18;98707.06;;;4.09;59.28
70200;BME280;57587;55.688;37.600;2023-03-14T07:28:49;98715.81;;;4.18;59.49
70200;BME280;57587;55.688;37.600;2023-03-14T07:31:18;98718.13;;;4.21;59.25
70200;BME280;57587;55.688;37.600;2023-03-14T07:33:46;98713.88;;;4.28;58.70
70200;BME280;57587;55.688;37.600;2023-03-14T07:36:13;98703.41;;;4.26;58.43
70200;BME280;57587;55.688;37.600;2023-03-14T07:38:43;98707.25;;;4.40;58.46
70200;BME280;57587;55.688;37.600;2023-03-14T07:41:49;98703.25;;;4.60;57.81
70200;BME280;57587;55.688;37.600;2023-03-14T07:44:40;98708.38;;;4.78;56.75
70200;BME280;57587;55.688;37.600;2023-03-14T07:47:07;98706.88;;;4.84;57.20
70200;BME280;57587;55.688;37.600;2023-03-14T07:49:34;98709.34;;;4.85;56.45
70200;BME280;57587;55.688;37.600;2023-03-14T07:52:01;98709.88;;;4.81;56.91
70200;BME280;57587;55.688;37.600;2023-03-14T07:54:28;98714.81;;;4.76;57.18
70200;BME280;57587;55.688;37.600;2023-03-14T07:56:55;98709.81;;;4.89;56.59
70200;BME280;57587;55.688;37.600;2023-03-14T07:59:25;98700.94;;;4.66;56.88
70200;BME280;57587;55.688;37.600;2023-03-14T08:01:52;98690.66;;;4.71;56.38
70200;BME280;57587;55.688;37.600;2023-03-14T08:04:19;98698.78;;;4.69;57.15
70200;BME280;57587;55.688;37.600;2023-03-14T08:06:47;98700.75;;;4.83;56.85
70200;BME280;57587;55.688;37.600;2023-03-14T08:09:14;98711.88;;;4.71;57.70
70200;BME280;57587;55.688;37.600;2023-03-14T08:11:42;98722.28;;;4.48;59.52
70200;BME280;57587;55.688;37.600;2023-03-14T08:14:09;98733.72;;;4.48;59.50
70200;BME280;57587;55.688;37.600;2023-03-14T08:16:37;98722.28;;;4.64;59.15
70200;BME280;57587;55.688;37.600;2023-03-14T08:19:04;98727.75;;;4.62;59.27
70200;BME280;57587;55.688;37.600;2023-03-14T08:21:31;98719.81;;;4.62;59.40
70200;BME280;57587;55.688;37.600;2023-03-14T08:23:58;98725.13;;;4.62;60.50
70200;BME280;57587;55.688;37.600;2023-03-14T08:26:26;98740.34;;;4.69;60.81
70200;BME280;57587;55.688;37.600;2023-03-14T08:28:53;98742.31;;;4.67;61.10
70200;BME280;57587;55.688;37.600;2023-03-14T08:31:20;98727.41;;;4.74;61.19
70200;BME280;57587;55.688;37.600;2023-03-14T08:33:47;98729.38;;;4.88;60.75
70200;BME280;57587;55.688;37.600;2023-03-14T08:36:14;98717.44;;;4.92;60.00
70200;BME280;57587;55.688;37.600;2023-03-14T08:38:41;98721.44;;;4.96;59.43
70200;BME280;57587;55.688;37.600;2023-03-14T08:41:09;98723.72;;;5.07;58.44
70200;BME280;57587;55.688;37.600;2023-03-14T08:43:36;98722.44;;;4.87;57.92
70200;BME280;57587;55.688;37.600;2023-03-14T08:46:04;98720.94;;;4.93;57.49
70200;BME280;57587;55.688;37.600;2023-03-14T08:48:31;98723.03;;;5.14;57.80
70200;BME280;57587;55.688;37.600;2023-03-14T08:51:24;98722.69;;;5.25;56.12
70200;BME280;57587;55.688;37.600;2023-03-14T08:53:51;98724.38;;;5.09;56.44
70200;BME280;57587;55.688;37.600;2023-03-14T08:56:18;98736.91;;;5.32;55.83
70200;BME280;57587;55.688;37.600;2023-03-14T08:58:46;98728.59;;;5.35;55.11
70200;BME280;57587;55.688;37.600;2023-03-14T09:01:13;98731.22;;;5.51;55.12
70200;BME280;57587;55.688;37.600;2023-03-14T09:03:40;98720.88;;;5.65;54.99
70200;BME280;57587;55.688;37.600;2023-03-14T09:06:09;98720.28;;;5.54;54.91
70200;BME280;57587;55.688;37.600;2023-03-14T09:08:36;98719.13;;;5.49;54.56
70200;BME280;57587;55.688;37.600;2023-03-14T09:11:08;98716.13;;;5.52;54.50
70200;BME280;57587;55.688;37.600;2023-03-14T09:13:36;98713.63;;;5.50;54.03
70200;BME280;57587;55.688;37.600;2023-03-14T09:16:03;98704.94;;;5.65;54.22
70200;BME280;57587;55.688;37.600;2023-03-14T09:18:31;98706.13;;;5.62;53.55
70200;BME280;57587;55.688;37.600;2023-03-14T09:20:58;98711.19;;;5.80;53.67
70200;BME280;57587;55.688;37.600;2023-03-14T09:23:25;98712.41;;;6.00;53.10
70200;BME280;57587;55.688;37.600;2023-03-14T09:25:56;98713.88;;;6.03;52.74
70200;BME280;57587;55.688;37.600;2023-03-14T09:28:23;98721.69;;;6.05;52.80
70200;BME280;57587;55.688;37.600;2023-03-14T09:30:50;98720.28;;;5.86;52.62
70200;BME280;57587;55.688;37.600;2023-03-14T09:33:18;98726.41;;;5.86;52.62
70200;BME280;57587;55.688;37.600;2023-03-14T09:35:45;98739.22;;;5.83;53.07
70200;BME280;57587;55.688;37.600;2023-03-14T09:38:13;98732.44;;;5.72;53.11
70200;BME280;57587;55.688;37.600;2023-03-14T09:40:40;98724.59;;;5.78;53.23
70200;BME280;57587;55.688;37.600;2023-03-14T09:43:14;98724.72;;;5.93;52.54
70200;BME280;57587;55.688;37.600;2023-03-14T09:45:42;98718.84;;;6.06;53.57
70200;BME280;57587;55.688;37.600;2023-03-14T09:48:17;98724.16;;;6.06;52.88
70200;BME280;57587;55.688;37.600;2023-03-14T09:50:51;98714.72;;;6.04;52.53
70200;BME280;57587;55.688;37.600;2023-03-14T09:53:23;98725.69;;;6.00;52.46
70200;BME280;57587;55.688;37.600;2023-03-14T09:55:51;98717.91;;;5.99;52.27
70200;BME280;57587;55.688;37.600;2023-03-14T09:58:21;98712.94;;;5.88;52.38
70200;BME280;57587;55.688;37.600;2023-03-14T10:00:55;98712.75;;;5.97;52.09
70200;BME280;57587;55.688;37.600;2023-03-14T10:05:52;98718.56;;;6.01;51.74
70200;BME280;57587;55.688;37.600;2023-03-14T10:08:20;98721.69;;;6.05;52.30
70200;BME280;57587;55.688;37.600;2023-03-14T10:10:47;98729.03;;;6.26;51.72
70200;BME280;57587;55.688;37.600;2023-03-14T10:13:18;98710.59;;;6.24;51.26
70200;BME280;57587;55.688;37.600;2023-03-14T10:15:53;98697.88;;;6.19;51.83
70200;BME280;57587;55.688;37.600;2023-03-14T10:18:20;98690.94;;;6.33;51.91
70200;BME280;57587;55.688;37.600;2023-03-14T10:20:49;98680.88;;;6.43;51.73
70200;BME280;57587;55.688;37.600;2023-03-14T10:23:31;98665.97;;;6.42;51.41
70200;BME280;57587;55.688;37.600;2023-03-14T10:28:32;98685.00;;;6.69;51.04
70200;BME280;57587;55.688;37.600;2023-03-14T10:31:00;98674.00;;;6.72;50.61
70200;BME280;57587;55.688;37.600;2023-03-14T10:33:30;98665.41;;;6.85;51.45
70200;BME280;57587;55.688;37.600;2023-03-14T10:36:23;98691.13;;;6.84;51.43
70200;BME280;57587;55.688;37.600;2023-03-14T10:41:50;98689.38;;;6.62;50.90
70200;BME280;57587;55.688;37.600;2023-03-14T10:44:21;98672.13;;;6.58;51.40
70200;BME280;57587;55.688;37.600;2023-03-14T10:47:00;98688.28;;;6.71;51.02
70200;BME280;57587;55.688;37.600;2023-03-14T10:49:29;98669.19;;;6.53;51.49
70200;BME280;57587;55.688;37.600;2023-03-14T10:52:02;98659.31;;;6.61;52.10
70200;BME280;57587;55.688;37.600;2023-03-14T10:54:39;98666.09;;;6.64;51.54
70200;BME280;57587;55.688;37.600;2023-03-14T10:57:06;98673.34;;;6.70;51.25
70200;BME280;57587;55.688;37.600;2023-03-14T10:59:36;98661.19;;;6.76;50.69
70200;BME280;57587;55.688;37.600;2023-03-14T11:07:39;98661.53;;;7.32;49.15
70200;BME280;57587;55.688;37.600;2023-03-14T11:15:40;98638.94;;;7.79;47.80
70200;BME280;57587;55.688;37.600;2023-03-14T11:21:12;98628.94;;;8.24;46.37
70200;BME280;57587;55.688;37.600;2023-03-14T11:26:46;98639.66;;;7.88;46.22
70200;BME280;57587;55.688;37.600;2023-03-14T11:29:36;98664.56;;;7.80;46.76
70200;BME280;57587;55.688;37.600;2023-03-14T11:32:14;98668.47;;;7.62;46.73
70200;BME280;57587;55.688;37.600;2023-03-14T11:34:50;98642.03;;;7.61;46.75
70200;BME280;57587;55.688;37.600;2023-03-14T11:39:57;98673.34;;;7.59;46.59
70200;BME280;57587;55.688;37.600;2023-03-14T11:42:26;98675.09;;;7.52;46.57
70200;BME280;57587;55.688;37.600;2023-03-14T11:44:55;98667.84;;;7.46;46.52
70200;BME280;57587;55.688;37.600;2023-03-14T11:47:35;98649.50;;;7.51;47.02
70200;BME280;57587;55.688;37.600;2023-03-14T11:50:24;98664.19;;;7.47;46.78
70200;BME280;57587;55.688;37.600;2023-03-14T11:52:58;98659.31;;;7.50;46.33
70200;BME280;57587;55.688;37.600;2023-03-14T11:55:36;98691.53;;;7.41;46.54
70200;BME280;57587;55.688;37.600;2023-03-14T11:58:27;98682.44;;;7.50;46.58
70200;BME280;57587;55.688;37.600;2023-03-14T12:00:57;98682.44;;;7.50;46.89
70200;BME280;57587;55.688;37.600;2023-03-14T12:03:35;98686.47;;;7.46;46.40
70200;BME280;57587;55.688;37.600;2023-03-14T12:13:46;98688.03;;;7.55;46.37
70200;BME280;57587;55.688;37.600;2023-03-14T12:18:51;98683.06;;;7.52;46.04
70200;BME280;57587;55.688;37.600;2023-03-14T12:21:19;98689.78;;;7.33;46.19
70200;BME280;57587;55.688;37.600;2023-03-14T12:23:52;98688.16;;;7.32;46.39
70200;BME280;57587;55.688;37.600;2023-03-14T12:26:22;98694.28;;;7.32;46.39
70200;BME280;57587;55.688;37.600;2023-03-14T12:45:29;98713.94;;;7.31;46.52
70200;BME280;57587;55.688;37.600;2023-03-14T12:53:33;98714.09;;;7.15;47.83
70200;BME280;57587;55.688;37.600;2023-03-14T12:59:34;98710.53;;;7.08;49.24
70200;BME280;57587;55.688;37.600;2023-03-14T13:15:37;98698.88;;;7.09;48.02
70200;BME280;57587;55.688;37.600;2023-03-14T13:20:51;98694.63;;;7.00;47.50
70200;BME280;57587;55.688;37.600;2023-03-14T13:23:28;98684.50;;;7.03;48.17
70200;BME280;57587;55.688;37.600;2023-03-14T13:25:56;98687.59;;;7.07;47.49
70200;BME280;57587;55.688;37.600;2023-03-14T13:28:23;98689.69;;;6.97;47.14
70200;BME280;57587;55.688;37.600;2023-03-14T13:30:57;98676.31;;;7.05;46.93
70200;BME280;57587;55.688;37.600;2023-03-14T13:33:25;98684.00;;;7.14;46.48
70200;BME280;57587;55.688;37.600;2023-03-14T13:35:58;98686.75;;;6.91;46.31
70200;BME280;57587;55.688;37.600;2023-03-14T13:38:28;98688.41;;;6.92;47.21
70200;BME280;57587;55.688;37.600;2023-03-14T13:40:58;98697.41;;;6.91;47.37
70200;BME280;57587;55.688;37.600;2023-03-14T13:43:32;98679.41;;;6.93;46.99
70200;BME280;57587;55.688;37.600;2023-03-14T13:46:20;98684.09;;;6.91;47.10
70200;BME280;57587;55.688;37.600;2023-03-14T13:48:55;98696.47;;;6.99;46.87
70200;BME280;57587;55.688;37.600;2023-03-14T13:51:26;98693.66;;;7.01;47.31
70200;BME280;57587;55.688;37.600;2023-03-14T13:53:58;98693.06;;;6.90;47.25
70200;BME280;57587;55.688;37.600;2023-03-14T13:56:29;98692.00;;;6.85;46.87
70200;BME280;57587;55.688;37.600;2023-03-14T13:58:56;98694.28;;;6.88;47.07
70200;BME280;57587;55.688;37.600;2023-03-14T14:01:26;98701.06;;;6.90;46.65
70200;BME280;57587;55.688;37.600;2023-03-14T14:03:57;98696.81;;;6.81;46.50
70200;BME280;57587;55.688;37.600;2023-03-14T14:09:13;98694.72;;;6.77;47.48
70200;BME280;57587;55.688;37.600;2023-03-14T14:17:12;98701.78;;;6.84;46.58
70200;BME280;57587;55.688;37.600;2023-03-14T14:19:42;98704.88;;;6.73;47.27
70200;BME280;57587;55.688;37.600;2023-03-14T14:22:11;98702.88;;;6.75;46.64
70200;BME280;57587;55.688;37.600;2023-03-14T14:24:39;98711.50;;;6.77;47.11
70200;BME280;57587;55.688;37.600;2023-03-14T14:27:13;98730.28;;;6.76;47.08
70200;BME280;57587;55.688;37.600;2023-03-14T14:29:43;98717.16;;;6.74;46.97
70200;BME280;57587;55.688;37.600;2023-03-14T14:32:12;98721.75;;;6.80;46.97
70200;BME280;57587;55.688;37.600;2023-03-14T14:37:26;98719.75;;;6.82;47.11
70200;BME280;57587;55.688;37.600;2023-03-14T14:39:57;98715.81;;;6.78;46.67
70200;BME280;57587;55.688;37.600;2023-03-14T14:42:30;98726.53;;;6.70;46.96
70200;BME280;57587;55.688;37.600;2023-03-14T14:44:58;98721.34;;;6.54;46.84
70200;BME280;57587;55.688;37.600;2023-03-14T14:47:27;98742.16;;;6.65;47.29
70200;BME280;57587;55.688;37.600;2023-03-14T14:50:00;98732.25;;;6.59;47.27
70200;BME280;57587;55.688;37.600;2023-03-14T14:52:37;98723.81;;;6.55;47.30
70200;BME280;57587;55.688;37.600;2023-03-14T14:55:17;98733.22;;;6.66;47.55
70200;BME280;57587;55.688;37.600;2023-03-14T14:57:53;98731.63;;;6.57;47.60
70200;BME280;57587;55.688;37.600;2023-03-14T15:00:23;98741.00;;;6.44;47.78
70200;BME280;57587;55.688;37.600;2023-03-14T15:02:52;98735.41;;;6.39;47.78